sensor_id;sensor_type;location;lat;lon;timestamp;P1;durP1;ratioP1;P2;durP2;ratioP2
73684;SDS011;61985;51.070;14.064;2023-04-01T00:01:07;3.45;;;0.98;;
73684;SDS011;61985;51.070;14.064;2023-04-01T00:03:33;4.32;;;1.00;;
73684;SDS011;61985;51.070;14.064;2023-04-01T00:05:59;2.13;;;0.90;;
73684;SDS011;61985;51.070;14.064;2023-04-01T00:08:26;3.20;;;0.77;;
73684;SDS011;61985;51.070;14.064;2023-04-01T00:10:52;2.72;;;1.10;;
73684;SDS011;61985;51.070;14.064;2023-04-01T00:13:19;1.50;;;0.80;;
73684;SDS011;61985;51.070;14.064;2023-04-01T00:15:45;3.67;;;1.20;;
73684;SDS011;61985;51.070;14.064;2023-04-01T00:18:11;1.55;;;0.85;;
73684;SDS011;61985;51.070;14.064;2023-04-01T00:20:38;2.20;;;0.73;;
73684;SDS011;61985;51.070;14.064;2023-04-01T00:23:10;4.53;;;1.25;;
73684;SDS011;61985;51.070;14.064;2023-04-01T00:25:36;1.10;;;0.68;;
73684;SDS011;61985;51.070;14.064;2023-04-01T00:28:01;2.28;;;0.90;;
73684;SDS011;61985;51.070;14.064;2023-04-01T00:30:27;2.22;;;0.70;;
73684;SDS011;61985;51.070;14.064;2023-04-01T00:32:53;1.13;;;1.00;;
73684;SDS011;61985;51.070;14.064;2023-04-01T00:35:19;1.10;;;0.70;;
73684;SDS011;61985;51.070;14.064;2023-04-01T00:37:47;5.20;;;1.15;;
73684;SDS011;61985;51.070;14.064;2023-04-01T00:40:25;3.10;;;1.00;;
73684;SDS011;61985;51.070;14.064;2023-04-01T00:43:03;2.13;;;1.05;;
73684;SDS011;61985;51.070;14.064;2023-04-01T00:45:40;4.22;;;1.10;;
73684;SDS011;61985;51.070;14.064;2023-04-01T00:48:12;3.63;;;0.90;;
73684;SDS011;61985;51.070;14.064;2023-04-01T00:50:48;3.97;;;0.88;;
73684;SDS011;61985;51.070;14.064;2023-04-01T00:53:17;1.03;;;0.73;;
73684;SDS011;61985;51.070;14.064;2023-04-01T00:56:07;1.98;;;1.00;;
73684;SDS011;61985;51.070;14.064;2023-04-01T00:58:40;4.93;;;1.02;;
73684;SDS011;61985;51.070;14.064;2023-04-01T01:01:10;4.13;;;1.27;;
73684;SDS011;61985;51.070;14.064;2023-04-01T01:03:36;4.07;;;0.95;;
73684;SDS011;61985;51.070;14.064;2023-04-01T01:06:07;5.05;;;1.00;;
73684;SDS011;61985;51.070;14.064;2023-04-01T01:11:15;1.40;;;0.77;;
73684;SDS011;61985;51.070;14.064;2023-04-01T01:14:05;2.88;;;0.80;;
73684;SDS011;61985;51.070;14.064;2023-04-01T01:16:46;1.27;;;0.70;;
73684;SDS011;61985;51.070;14.064;2023-04-01T01:19:48;1.15;;;0.80;;
73684;SDS011;61985;51.070;14.064;2023-04-01T01:27:57;4.80;;;1.08;;
73684;SDS011;61985;51.070;14.064;2023-04-01T01:36:22;4.55;;;1.40;;
73684;SDS011;61985;51.070;14.064;2023-04-01T01:38:54;3.53;;;1.03;;
73684;SDS011;61985;51.070;14.064;2023-04-01T01:41:21;1.45;;;1.05;;
73684;SDS011;61985;51.070;14.064;2023-04-01T01:43:48;3.67;;;1.17;;
73684;SDS011;61985;51.070;14.064;2023-04-01T01:46:19;1.75;;;0.95;;
73684;SDS011;61985;51.070;14.064;2023-04-01T01:48:50;2.83;;;0.80;;
73684;SDS011;61985;51.070;14.064;2023-04-01T01:51:20;3.60;;;1.02;;
73684;SDS011;61985;51.070;14.064;2023-04-01T01:53:47;8.13;;;1.35;;
73684;SDS011;61985;51.070;14.064;2023-04-01T01:56:13;3.97;;;1.00;;
73684;SDS011;61985;51.070;14.064;2023-04-01T01:58:45;4.57;;;1.10;;
73684;SDS011;61985;51.070;14.064;2023-04-01T02:01:19;2.33;;;0.75;;
73684;SDS011;61985;51.070;14.064;2023-04-01T02:03:48;2.17;;;0.80;;
73684;SDS011;61985;51.070;14.064;2023-04-01T02:06:18;4.13;;;1.00;;
73684;SDS011;61985;51.070;14.064;2023-04-01T02:08:56;1.35;;;0.82;;
73684;SDS011;61985;51.070;14.064;2023-04-01T02:11:32;2.95;;;0.88;;
73684;SDS011;61985;51.070;14.064;2023-04-01T02:14:06;2.63;;;0.88;;
73684;SDS011;61985;51.070;14.064;2023-04-01T02:16:36;4.47;;;1.13;;
73684;SDS011;61985;51.070;14.064;2023-04-01T02:19:08;2.85;;;0.75;;
73684;SDS011;61985;51.070;14.064;2023-04-01T02:21:36;4.97;;;0.80;;
73684;SDS011;61985;51.070;14.064;2023-04-01T02:24:05;6.45;;;0.75;;
73684;SDS011;61985;51.070;14.064;2023-04-01T02:26:36;3.15;;;0.90;;
73684;SDS011;61985;51.070;14.064;2023-04-01T02:29:06;4.03;;;0.93;;
73684;SDS011;61985;51.070;14.064;2023-04-01T02:31:36;3.60;;;1.10;;
73684;SDS011;61985;51.070;14.064;2023-04-01T02:34:04;5.30;;;1.35;;
73684;SDS011;61985;51.070;14.064;2023-04-01T02:36:31;3.35;;;0.77;;
73684;SDS011;61985;51.070;14.064;2023-04-01T02:38:57;2.58;;;0.98;;
73684;SDS011;61985;51.070;14.064;2023-04-01T02:41:30;5.75;;;1.38;;
73684;SDS011;61985;51.070;14.064;2023-04-01T02:44:19;1.60;;;0.93;;
73684;SDS011;61985;51.070;14.064;2023-04-01T02:46:46;4.18;;;1.40;;
73684;SDS011;61985;51.070;14.064;2023-04-01T02:49:14;2.22;;;0.73;;
73684;SDS011;61985;51.070;14.064;2023-04-01T02:51:40;1.75;;;1.00;;
73684;SDS011;61985;51.070;14.064;2023-04-01T02:54:11;3.47;;;1.00;;
73684;SDS011;61985;51.070;14.064;2023-04-01T02:56:37;3.80;;;1.02;;
73684;SDS011;61985;51.070;14.064;2023-04-01T02:59:02;3.55;;;1.45;;
73684;SDS011;61985;51.070;14.064;2023-04-01T03:01:28;3.55;;;1.15;;
73684;SDS011;61985;51.070;14.064;2023-04-01T03:03:53;4.60;;;1.05;;
73684;SDS011;61985;51.070;14.064;2023-04-01T03:06:19;2.78;;;0.90;;
73684;SDS011;61985;51.070;14.064;2023-04-01T03:08:45;6.30;;;1.00;;
73684;SDS011;61985;51.070;14.064;2023-04-01T03:11:14;3.83;;;1.17;;
73684;SDS011;61985;51.070;14.064;2023-04-01T03:13:39;3.25;;;1.17;;
73684;SDS011;61985;51.070;14.064;2023-04-01T03:16:05;2.03;;;1.00;;
73684;SDS011;61985;51.070;14.064;2023-04-01T03:18:31;2.42;;;1.08;;
73684;SDS011;61985;51.070;14.064;2023-04-01T03:23:47;5.38;;;1.10;;
73684;SDS011;61985;51.070;14.064;2023-04-01T03:26:16;3.33;;;1.40;;
73684;SDS011;61985;51.070;14.064;2023-04-01T03:28:43;7.05;;;1.45;;
73684;SDS011;61985;51.070;14.064;2023-04-01T03:31:09;6.32;;;1.42;;
73684;SDS011;61985;51.070;14.064;2023-04-01T03:33:38;2.47;;;1.15;;
73684;SDS011;61985;51.070;14.064;2023-04-01T03:36:04;6.88;;;1.27;;
73684;SDS011;61985;51.070;14.064;2023-04-01T03:38:32;6.13;;;1.25;;
73684;SDS011;61985;51.070;14.064;2023-04-01T03:40:58;4.00;;;1.25;;
73684;SDS011;61985;51.070;14.064;2023-04-01T03:43:24;4.55;;;1.35;;
73684;SDS011;61985;51.070;14.064;2023-04-01T03:45:50;4.40;;;0.88;;
73684;SDS011;61985;51.070;14.064;2023-04-01T03:48:16;5.20;;;1.05;;
73684;SDS011;61985;51.070;14.064;2023-04-01T03:50:42;3.45;;;1.20;;
73684;SDS011;61985;51.070;14.064;2023-04-01T03:53:08;4.47;;;1.02;;
73684;SDS011;61985;51.070;14.064;2023-04-01T03:55:38;2.03;;;1.10;;
73684;SDS011;61985;51.070;14.064;2023-04-01T03:58:04;4.15;;;1.05;;
73684;SDS011;61985;51.070;14.064;2023-04-01T04:00:31;4.78;;;1.00;;
73684;SDS011;61985;51.070;14.064;2023-04-01T04:02:56;2.65;;;0.80;;
73684;SDS011;61985;51.070;14.064;2023-04-01T04:05:22;4.60;;;1.30;;
73684;SDS011;61985;51.070;14.064;2023-04-01T04:07:48;2.63;;;1.00;;
73684;SDS011;61985;51.070;14.064;2023-04-01T04:10:14;9.05;;;1.30;;
73684;SDS011;61985;51.070;14.064;2023-04-01T04:12:39;4.40;;;1.27;;
73684;SDS011;61985;51.070;14.064;2023-04-01T04:15:05;3.55;;;0.93;;
73684;SDS011;61985;51.070;14.064;2023-04-01T04:17:31;4.68;;;1.52;;
73684;SDS011;61985;51.070;14.064;2023-04-01T04:19:57;4.60;;;1.27;;
73684;SDS011;61985;51.070;14.064;2023-04-01T04:22:23;3.80;;;1.30;;
73684;SDS011;61985;51.070;14.064;2023-04-01T04:24:50;4.50;;;1.02;;
73684;SDS011;61985;51.070;14.064;2023-04-01T04:27:19;3.90;;;1.20;;
73684;SDS011;61985;51.070;14.064;2023-04-01T04:29:45;3.00;;;0.80;;
73684;SDS011;61985;51.070;14.064;2023-04-01T04:32:10;2.65;;;0.95;;
73684;SDS011;61985;51.070;14.064;2023-04-01T04:34:36;3.03;;;0.90;;
73684;SDS011;61985;51.070;14.064;2023-04-01T04:37:02;4.53;;;0.90;;
73684;SDS011;61985;51.070;14.064;2023-04-01T04:39:27;3.50;;;1.10;;
73684;SDS011;61985;51.070;14.064;2023-04-01T04:41:53;3.55;;;0.90;;
73684;SDS011;61985;51.070;14.064;2023-04-01T04:44:24;9.20;;;1.90;;
73684;SDS011;61985;51.070;14.064;2023-04-01T04:46:53;4.00;;;1.73;;
73684;SDS011;61985;51.070;14.064;2023-04-01T04:49:18;3.63;;;1.40;;
73684;SDS011;61985;51.070;14.064;2023-04-01T04:51:44;4.63;;;1.00;;
73684;SDS011;61985;51.070;14.064;2023-04-01T04:54:10;4.53;;;1.17;;
73684;SDS011;61985;51.070;14.064;2023-04-01T04:56:35;7.70;;;1.33;;
73684;SDS011;61985;51.070;14.064;2023-04-01T04:59:01;5.57;;;1.30;;
73684;SDS011;61985;51.070;14.064;2023-04-01T05:01:26;4.80;;;1.30;;
73684;SDS011;61985;51.070;14.064;2023-04-01T05:03:51;2.17;;;0.95;;
73684;SDS011;61985;51.070;14.064;2023-04-01T05:06:17;3.70;;;0.82;;
73684;SDS011;61985;51.070;14.064;2023-04-01T05:08:43;3.28;;;1.10;;
73684;SDS011;61985;51.070;14.064;2023-04-01T05:11:11;3.58;;;0.98;;
73684;SDS011;61985;51.070;14.064;2023-04-01T05:13:38;5.18;;;1.10;;
73684;SDS011;61985;51.070;14.064;2023-04-01T05:16:08;2.95;;;0.85;;
73684;SDS011;61985;51.070;14.064;2023-04-01T05:18:37;2.08;;;0.90;;
73684;SDS011;61985;51.070;14.064;2023-04-01T05:21:02;4.38;;;1.02;;
73684;SDS011;61985;51.070;14.064;2023-04-01T05:23:28;4.97;;;0.85;;
73684;SDS011;61985;51.070;14.064;2023-04-01T05:25:53;3.90;;;1.00;;
73684;SDS011;61985;51.070;14.064;2023-04-01T05:28:19;2.13;;;0.93;;
73684;SDS011;61985;51.070;14.064;2023-04-01T05:30:45;2.50;;;1.02;;
73684;SDS011;61985;51.070;14.064;2023-04-01T05:33:11;3.17;;;0.90;;
73684;SDS011;61985;51.070;14.064;2023-04-01T05:35:38;3.85;;;0.82;;
73684;SDS011;61985;51.070;14.064;2023-04-01T05:38:04;2.95;;;0.98;;
73684;SDS011;61985;51.070;14.064;2023-04-01T05:40:30;3.47;;;0.80;;
73684;SDS011;61985;51.070;14.064;2023-04-01T05:42:56;2.20;;;0.80;;
73684;SDS011;61985;51.070;14.064;2023-04-01T05:45:22;2.53;;;0.77;;
73684;SDS011;61985;51.070;14.064;2023-04-01T05:47:48;1.08;;;0.73;;
73684;SDS011;61985;51.070;14.064;2023-04-01T05:50:13;3.83;;;1.00;;
73684;SDS011;61985;51.070;14.064;2023-04-01T05:52:40;4.00;;;1.02;;
73684;SDS011;61985;51.070;14.064;2023-04-01T05:55:05;4.00;;;0.95;;
73684;SDS011;61985;51.070;14.064;2023-04-01T05:57:31;3.72;;;1.30;;
73684;SDS011;61985;51.070;14.064;2023-04-01T06:02:32;3.00;;;0.85;;
73684;SDS011;61985;51.070;14.064;2023-04-01T06:05:11;3.83;;;0.80;;
73684;SDS011;61985;51.070;14.064;2023-04-01T06:07:40;5.63;;;1.10;;
73684;SDS011;61985;51.070;14.064;2023-04-01T06:10:11;3.92;;;1.20;;
73684;SDS011;61985;51.070;14.064;2023-04-01T06:46:41;2.67;;;0.73;;
73684;SDS011;61985;51.070;14.064;2023-04-01T06:49:17;3.72;;;1.13;;
73684;SDS011;61985;51.070;14.064;2023-04-01T06:56:18;6.75;;;1.35;;
73684;SDS011;61985;51.070;14.064;2023-04-01T06:58:54;3.30;;;1.23;;
73684;SDS011;61985;51.070;14.064;2023-04-01T07:01:29;2.95;;;1.08;;
73684;SDS011;61985;51.070;14.064;2023-04-01T07:04:01;5.30;;;2.17;;
73684;SDS011;61985;51.070;14.064;2023-04-01T07:06:32;3.85;;;1.02;;
73684;SDS011;61985;51.070;14.064;2023-04-01T07:09:05;4.57;;;1.27;;
73684;SDS011;61985;51.070;14.064;2023-04-01T07:11:35;1.85;;;0.80;;
73684;SDS011;61985;51.070;14.064;2023-04-01T07:14:04;1.77;;;0.90;;
73684;SDS011;61985;51.070;14.064;2023-04-01T07:16:51;3.35;;;1.13;;
73684;SDS011;61985;51.070;14.064;2023-04-01T07:22:01;5.57;;;2.00;;
73684;SDS011;61985;51.070;14.064;2023-04-01T07:24:37;2.97;;;1.25;;
73684;SDS011;61985;51.070;14.064;2023-04-01T07:27:08;4.80;;;1.33;;
73684;SDS011;61985;51.070;14.064;2023-04-01T07:29:35;3.92;;;1.23;;
73684;SDS011;61985;51.070;14.064;2023-04-01T07:32:06;2.92;;;1.20;;
73684;SDS011;61985;51.070;14.064;2023-04-01T07:35:00;6.97;;;1.65;;
73684;SDS011;61985;51.070;14.064;2023-04-01T07:42:43;2.75;;;1.20;;
73684;SDS011;61985;51.070;14.064;2023-04-01T07:50:41;5.55;;;1.33;;
73684;SDS011;61985;51.070;14.064;2023-04-01T07:56:05;4.05;;;1.35;;
73684;SDS011;61985;51.070;14.064;2023-04-01T08:01:27;2.80;;;1.30;;
73684;SDS011;61985;51.070;14.064;2023-04-01T08:04:03;2.45;;;0.80;;
73684;SDS011;61985;51.070;14.064;2023-04-01T08:25:37;3.53;;;1.40;;
73684;SDS011;61985;51.070;14.064;2023-04-01T08:28:26;5.82;;;1.45;;
73684;SDS011;61985;51.070;14.064;2023-04-01T08:31:09;1.85;;;0.68;;
73684;SDS011;61985;51.070;14.064;2023-04-01T08:33:38;1.20;;;0.57;;
73684;SDS011;61985;51.070;14.064;2023-04-01T08:36:09;9.85;;;3.42;;
73684;SDS011;61985;51.070;14.064;2023-04-01T08:54:23;2.23;;;0.83;;
73684;SDS011;61985;51.070;14.064;2023-04-01T09:12:59;1.35;;;0.70;;
73684;SDS011;61985;51.070;14.064;2023-04-01T09:29:31;1.50;;;1.10;;
73684;SDS011;61985;51.070;14.064;2023-04-01T09:38:27;2.10;;;0.63;;
73684;SDS011;61985;51.070;14.064;2023-04-01T09:41:07;1.75;;;0.90;;
73684;SDS011;61985;51.070;14.064;2023-04-01T09:44:15;1.00;;;0.80;;
73684;SDS011;61985;51.070;14.064;2023-04-01T13:30:36;23.10;;;10.57;;
73684;SDS011;61985;51.070;14.064;2023-04-01T13:41:51;35.25;;;20.35;;
73684;SDS011;61985;51.070;14.064;2023-04-01T13:44:42;14.20;;;6.90;;
73684;SDS011;61985;51.070;14.064;2023-04-01T13:49:50;12.77;;;8.50;;
73684;SDS011;61985;51.070;14.064;2023-04-01T14:01:16;2.30;;;1.60;;
73684;SDS011;61985;51.070;14.064;2023-04-01T14:48:28;3.00;;;1.20;;
73684;SDS011;61985;51.070;14.064;2023-04-01T14:51:02;3.80;;;0.80;;
73684;SDS011;61985;51.070;14.064;2023-04-01T14:56:11;1.58;;;0.77;;
73684;SDS011;61985;51.070;14.064;2023-04-01T14:58:41;3.03;;;1.35;;
73684;SDS011;61985;51.070;14.064;2023-04-01T15:01:22;2.03;;;1.10;;
73684;SDS011;61985;51.070;14.064;2023-04-01T21:19:01;1.35;;;1.08;;
73684;SDS011;61985;51.070;14.064;2023-04-01T21:45:34;3.92;;;2.22;;
73684;SDS011;61985;51.070;14.064;2023-04-01T22:03:42;4.13;;;2.22;;
73684;SDS011;61985;51.070;14.064;2023-04-01T22:10:27;3.53;;;2.13;;
73684;SDS011;61985;51.070;14.064;2023-04-01T22:20:33;3.40;;;2.30;;
73684;SDS011;61985;51.070;14.064;2023-04-01T22:24:28;4.07;;;2.50;;
73684;SDS011;61985;51.070;14.064;2023-04-01T22:30:39;5.45;;;2.47;;
73684;SDS011;61985;51.070;14.064;2023-04-01T22:33:05;5.15;;;2.72;;
73684;SDS011;61985;51.070;14.064;2023-04-01T22:36:31;6.68;;;2.95;;
73684;SDS011;61985;51.070;14.064;2023-04-01T22:40:00;5.82;;;2.92;;
73684;SDS011;61985;51.070;14.064;2023-04-01T22:49:35;6.18;;;3.22;;
73684;SDS011;61985;51.070;14.064;2023-04-01T22:55:28;7.15;;;3.53;;
73684;SDS011;61985;51.070;14.064;2023-04-01T22:58:26;6.75;;;3.42;;
73684;SDS011;61985;51.070;14.064;2023-04-01T23:01:28;9.15;;;4.55;;
73684;SDS011;61985;51.070;14.064;2023-04-01T23:03:58;7.90;;;4.63;;
73684;SDS011;61985;51.070;14.064;2023-04-01T23:06:27;8.85;;;4.35;;
73684;SDS011;61985;51.070;14.064;2023-04-01T23:28:32;9.43;;;4.32;;
73684;SDS011;61985;51.070;14.064;2023-04-01T23:33:55;7.43;;;4.10;;
73684;SDS011;61985;51.070;14.064;2023-04-01T23:36:24;7.10;;;3.88;;
73684;SDS011;61985;51.070;14.064;2023-04-01T23:38:55;8.35;;;4.18;;
73684;SDS011;61985;51.070;14.064;2023-04-01T23:41:32;7.30;;;3.42;;
73684;SDS011;61985;51.070;14.064;2023-04-01T23:44:04;8.45;;;4.63;;
73684;SDS011;61985;51.070;14.064;2023-04-01T23:46:34;8.70;;;4.60;;
73684;SDS011;61985;51.070;14.064;2023-04-01T23:49:01;7.75;;;4.18;;
73684;SDS011;61985;51.070;14.064;2023-04-01T23:51:36;7.28;;;3.85;;
73684;SDS011;61985;51.070;14.064;2023-04-01T23:54:13;7.32;;;4.15;;
73684;SDS011;61985;51.070;14.064;2023-04-01T23:56:50;7.20;;;3.67;;
73684;SDS011;61985;51.070;14.064;2023-04-01T23:59:22;6.38;;;3.67;;
